sensor_id;sensor_type;location;lat;lon;timestamp;P1;durP1;ratioP1;P2;durP2;ratioP2
30743;SDS011;17486;46.738;7.622;2023-08-30T00:00:07;1.60;;;1.50;;
30743;SDS011;17486;46.738;7.622;2023-08-30T00:02:33;1.80;;;1.70;;
30743;SDS011;17486;46.738;7.622;2023-08-30T00:04:59;1.65;;;1.55;;
30743;SDS011;17486;46.738;7.622;2023-08-30T00:07:25;1.85;;;1.73;;
30743;SDS011;17486;46.738;7.622;2023-08-30T00:09:51;1.90;;;1.80;;
30743;SDS011;17486;46.738;7.622;2023-08-30T00:12:16;2.33;;;1.65;;
30743;SDS011;17486;46.738;7.622;2023-08-30T00:14:41;2.92;;;1.60;;
30743;SDS011;17486;46.738;7.622;2023-08-30T00:17:07;2.40;;;2.03;;
30743;SDS011;17486;46.738;7.622;2023-08-30T00:19:33;2.75;;;1.80;;
30743;SDS011;17486;46.738;7.622;2023-08-30T00:21:58;2.08;;;1.65;;
30743;SDS011;17486;46.738;7.622;2023-08-30T00:24:23;1.98;;;1.70;;
30743;SDS011;17486;46.738;7.622;2023-08-30T00:26:49;2.25;;;1.63;;
30743;SDS011;17486;46.738;7.622;2023-08-30T00:29:14;1.65;;;1.52;;
30743;SDS011;17486;46.738;7.622;2023-08-30T00:31:39;2.70;;;2.00;;
30743;SDS011;17486;46.738;7.622;2023-08-30T00:34:05;3.05;;;1.70;;
30743;SDS011;17486;46.738;7.622;2023-08-30T00:36:30;2.28;;;1.60;;
30743;SDS011;17486;46.738;7.622;2023-08-30T00:38:55;2.30;;;1.67;;
30743;SDS011;17486;46.738;7.622;2023-08-30T00:41:21;2.15;;;1.90;;
30743;SDS011;17486;46.738;7.622;2023-08-30T00:43:46;3.70;;;2.05;;
30743;SDS011;17486;46.738;7.622;2023-08-30T00:46:12;2.17;;;1.90;;
30743;SDS011;17486;46.738;7.622;2023-08-30T00:48:39;2.15;;;1.80;;
30743;SDS011;17486;46.738;7.622;2023-08-30T00:51:05;1.80;;;1.63;;
30743;SDS011;17486;46.738;7.622;2023-08-30T00:53:31;1.77;;;1.65;;
30743;SDS011;17486;46.738;7.622;2023-08-30T00:55:57;2.28;;;1.67;;
30743;SDS011;17486;46.738;7.622;2023-08-30T00:58:22;1.58;;;1.48;;
30743;SDS011;17486;46.738;7.622;2023-08-30T01:00:48;2.15;;;1.50;;
30743;SDS011;17486;46.738;7.622;2023-08-30T01:03:15;2.10;;;1.77;;
30743;SDS011;17486;46.738;7.622;2023-08-30T01:05:41;2.17;;;1.73;;
30743;SDS011;17486;46.738;7.622;2023-08-30T01:08:07;2.72;;;1.55;;
30743;SDS011;17486;46.738;7.622;2023-08-30T01:13:35;2.58;;;1.40;;
30743;SDS011;17486;46.738;7.622;2023-08-30T01:16:05;3.20;;;1.88;;
30743;SDS011;17486;46.738;7.622;2023-08-30T01:18:32;1.85;;;1.75;;
30743;SDS011;17486;46.738;7.622;2023-08-30T01:21:01;4.78;;;1.70;;
30743;SDS011;17486;46.738;7.622;2023-08-30T01:23:40;3.50;;;1.70;;
30743;SDS011;17486;46.738;7.622;2023-08-30T01:26:15;3.35;;;1.85;;
30743;SDS011;17486;46.738;7.622;2023-08-30T01:28:58;2.22;;;1.83;;
30743;SDS011;17486;46.738;7.622;2023-08-30T01:31:27;2.65;;;1.80;;
30743;SDS011;17486;46.738;7.622;2023-08-30T01:33:54;3.05;;;2.15;;
30743;SDS011;17486;46.738;7.622;2023-08-30T01:36:22;2.08;;;1.85;;
30743;SDS011;17486;46.738;7.622;2023-08-30T01:38:48;3.15;;;1.88;;
30743;SDS011;17486;46.738;7.622;2023-08-30T01:41:14;2.22;;;1.98;;
30743;SDS011;17486;46.738;7.622;2023-08-30T01:43:41;1.90;;;1.80;;
30743;SDS011;17486;46.738;7.622;2023-08-30T01:46:07;2.22;;;2.03;;
30743;SDS011;17486;46.738;7.622;2023-08-30T01:48:33;2.33;;;1.80;;
30743;SDS011;17486;46.738;7.622;2023-08-30T01:51:00;2.10;;;1.90;;
30743;SDS011;17486;46.738;7.622;2023-08-30T01:53:26;2.25;;;1.70;;
30743;SDS011;17486;46.738;7.622;2023-08-30T01:55:53;2.40;;;2.00;;
30743;SDS011;17486;46.738;7.622;2023-08-30T01:58:18;2.22;;;1.92;;
30743;SDS011;17486;46.738;7.622;2023-08-30T02:00:45;2.33;;;1.83;;
30743;SDS011;17486;46.738;7.622;2023-08-30T02:03:11;2.00;;;1.80;;
30743;SDS011;17486;46.738;7.622;2023-08-30T02:05:39;2.90;;;2.10;;
30743;SDS011;17486;46.738;7.622;2023-08-30T02:08:30;1.98;;;1.77;;
30743;SDS011;17486;46.738;7.622;2023-08-30T02:11:04;2.05;;;1.70;;
30743;SDS011;17486;46.738;7.622;2023-08-30T02:13:33;2.13;;;1.80;;
30743;SDS011;17486;46.738;7.622;2023-08-30T02:16:00;1.40;;;1.30;;
30743;SDS011;17486;46.738;7.622;2023-08-30T02:18:27;2.60;;;1.50;;
30743;SDS011;17486;46.738;7.622;2023-08-30T02:20:53;2.22;;;1.45;;
30743;SDS011;17486;46.738;7.622;2023-08-30T02:23:18;2.38;;;1.90;;
30743;SDS011;17486;46.738;7.622;2023-08-30T02:25:44;1.90;;;1.58;;
30743;SDS011;17486;46.738;7.622;2023-08-30T02:28:09;2.72;;;1.55;;
30743;SDS011;17486;46.738;7.622;2023-08-30T02:30:35;1.67;;;1.55;;
30743;SDS011;17486;46.738;7.622;2023-08-30T02:33:00;2.15;;;1.60;;
30743;SDS011;17486;46.738;7.622;2023-08-30T02:35:25;3.10;;;1.50;;
30743;SDS011;17486;46.738;7.622;2023-08-30T02:37:51;1.50;;;1.40;;
30743;SDS011;17486;46.738;7.622;2023-08-30T02:40:16;2.03;;;1.63;;
30743;SDS011;17486;46.738;7.622;2023-08-30T02:42:42;2.00;;;1.70;;
30743;SDS011;17486;46.738;7.622;2023-08-30T02:45:07;1.98;;;1.65;;
30743;SDS011;17486;46.738;7.622;2023-08-30T02:47:33;1.70;;;1.60;;
30743;SDS011;17486;46.738;7.622;2023-08-30T02:49:58;1.73;;;1.63;;
30743;SDS011;17486;46.738;7.622;2023-08-30T02:52:24;3.88;;;1.58;;
30743;SDS011;17486;46.738;7.622;2023-08-30T02:54:49;1.63;;;1.52;;
30743;SDS011;17486;46.738;7.622;2023-08-30T02:57:14;2.22;;;1.60;;
30743;SDS011;17486;46.738;7.622;2023-08-30T02:59:43;2.08;;;1.63;;
30743;SDS011;17486;46.738;7.622;2023-08-30T03:02:08;1.65;;;1.50;;
30743;SDS011;17486;46.738;7.622;2023-08-30T03:04:33;2.13;;;1.92;;
30743;SDS011;17486;46.738;7.622;2023-08-30T03:07:00;4.28;;;1.58;;
30743;SDS011;17486;46.738;7.622;2023-08-30T03:09:26;2.28;;;2.00;;
30743;SDS011;17486;46.738;7.622;2023-08-30T03:11:51;2.08;;;1.92;;
30743;SDS011;17486;46.738;7.622;2023-08-30T03:14:16;2.28;;;2.08;;
30743;SDS011;17486;46.738;7.622;2023-08-30T03:16:42;2.80;;;2.10;;
30743;SDS011;17486;46.738;7.622;2023-08-30T03:19:09;3.25;;;2.03;;
30743;SDS011;17486;46.738;7.622;2023-08-30T03:21:35;3.45;;;1.70;;
30743;SDS011;17486;46.738;7.622;2023-08-30T03:24:00;1.95;;;1.80;;
30743;SDS011;17486;46.738;7.622;2023-08-30T03:26:25;2.53;;;1.98;;
30743;SDS011;17486;46.738;7.622;2023-08-30T03:28:51;1.77;;;1.67;;
30743;SDS011;17486;46.738;7.622;2023-08-30T03:31:19;2.15;;;1.85;;
30743;SDS011;17486;46.738;7.622;2023-08-30T03:33:47;2.20;;;2.00;;
30743;SDS011;17486;46.738;7.622;2023-08-30T03:36:14;3.90;;;1.83;;
30743;SDS011;17486;46.738;7.622;2023-08-30T03:38:41;2.70;;;2.20;;
30743;SDS011;17486;46.738;7.622;2023-08-30T03:41:07;4.20;;;1.88;;
30743;SDS011;17486;46.738;7.622;2023-08-30T03:43:34;1.92;;;1.83;;
30743;SDS011;17486;46.738;7.622;2023-08-30T03:46:00;2.90;;;1.98;;
30743;SDS011;17486;46.738;7.622;2023-08-30T03:48:26;1.85;;;1.63;;
30743;SDS011;17486;46.738;7.622;2023-08-30T03:50:52;2.13;;;2.03;;
30743;SDS011;17486;46.738;7.622;2023-08-30T03:53:17;5.53;;;2.70;;
30743;SDS011;17486;46.738;7.622;2023-08-30T03:55:43;2.20;;;2.00;;
30743;SDS011;17486;46.738;7.622;2023-08-30T03:58:08;2.28;;;2.08;;
30743;SDS011;17486;46.738;7.622;2023-08-30T04:00:37;2.30;;;2.10;;
30743;SDS011;17486;46.738;7.622;2023-08-30T04:03:04;2.58;;;2.13;;
30743;SDS011;17486;46.738;7.622;2023-08-30T04:05:36;2.88;;;2.10;;
30743;SDS011;17486;46.738;7.622;2023-08-30T04:08:06;2.30;;;2.08;;
30743;SDS011;17486;46.738;7.622;2023-08-30T04:10:35;2.08;;;1.90;;
30743;SDS011;17486;46.738;7.622;2023-08-30T04:13:05;2.20;;;2.00;;
30743;SDS011;17486;46.738;7.622;2023-08-30T04:15:37;2.88;;;2.40;;
30743;SDS011;17486;46.738;7.622;2023-08-30T04:18:04;2.58;;;2.10;;
30743;SDS011;17486;46.738;7.622;2023-08-30T04:20:30;2.55;;;2.35;;
30743;SDS011;17486;46.738;7.622;2023-08-30T04:22:57;2.13;;;1.92;;
30743;SDS011;17486;46.738;7.622;2023-08-30T04:25:23;3.67;;;2.03;;
30743;SDS011;17486;46.738;7.622;2023-08-30T04:27:49;3.88;;;2.08;;
30743;SDS011;17486;46.738;7.622;2023-08-30T04:30:15;3.60;;;2.17;;
30743;SDS011;17486;46.738;7.622;2023-08-30T04:32:41;3.60;;;2.47;;
30743;SDS011;17486;46.738;7.622;2023-08-30T04:35:07;3.45;;;3.03;;
30743;SDS011;17486;46.738;7.622;2023-08-30T04:37:32;2.75;;;2.53;;
30743;SDS011;17486;46.738;7.622;2023-08-30T04:39:58;3.60;;;2.50;;
30743;SDS011;17486;46.738;7.622;2023-08-30T04:42:23;3.13;;;2.30;;
30743;SDS011;17486;46.738;7.622;2023-08-30T04:44:49;2.67;;;2.35;;
30743;SDS011;17486;46.738;7.622;2023-08-30T04:47:16;2.55;;;2.22;;
30743;SDS011;17486;46.738;7.622;2023-08-30T04:49:41;2.83;;;2.15;;
30743;SDS011;17486;46.738;7.622;2023-08-30T04:52:07;2.67;;;2.40;;
30743;SDS011;17486;46.738;7.622;2023-08-30T04:54:32;2.53;;;2.30;;
30743;SDS011;17486;46.738;7.622;2023-08-30T04:56:57;2.10;;;1.95;;
30743;SDS011;17486;46.738;7.622;2023-08-30T04:59:23;3.80;;;1.90;;
30743;SDS011;17486;46.738;7.622;2023-08-30T05:01:49;2.33;;;2.13;;
30743;SDS011;17486;46.738;7.622;2023-08-30T05:04:16;2.42;;;2.00;;
30743;SDS011;17486;46.738;7.622;2023-08-30T05:06:41;2.13;;;1.90;;
30743;SDS011;17486;46.738;7.622;2023-08-30T05:09:07;3.58;;;1.95;;
30743;SDS011;17486;46.738;7.622;2023-08-30T05:11:32;3.90;;;2.17;;
30743;SDS011;17486;46.738;7.622;2023-08-30T05:13:57;3.60;;;2.47;;
30743;SDS011;17486;46.738;7.622;2023-08-30T05:16:23;3.75;;;2.00;;
30743;SDS011;17486;46.738;7.622;2023-08-30T05:18:48;2.70;;;2.40;;
30743;SDS011;17486;46.738;7.622;2023-08-30T05:21:14;3.75;;;2.33;;
30743;SDS011;17486;46.738;7.622;2023-08-30T05:23:39;2.75;;;2.15;;
30743;SDS011;17486;46.738;7.622;2023-08-30T05:26:11;3.67;;;2.15;;
30743;SDS011;17486;46.738;7.622;2023-08-30T05:28:39;2.63;;;2.08;;
30743;SDS011;17486;46.738;7.622;2023-08-30T05:31:04;2.33;;;2.13;;
30743;SDS011;17486;46.738;7.622;2023-08-30T05:33:30;3.58;;;2.15;;
30743;SDS011;17486;46.738;7.622;2023-08-30T05:35:56;2.58;;;2.38;;
30743;SDS011;17486;46.738;7.622;2023-08-30T05:38:21;4.25;;;2.25;;
30743;SDS011;17486;46.738;7.622;2023-08-30T05:40:47;2.35;;;1.77;;
30743;SDS011;17486;46.738;7.622;2023-08-30T05:43:12;3.38;;;2.00;;
30743;SDS011;17486;46.738;7.622;2023-08-30T05:45:38;2.28;;;1.85;;
30743;SDS011;17486;46.738;7.622;2023-08-30T05:48:03;2.70;;;2.40;;
30743;SDS011;17486;46.738;7.622;2023-08-30T05:50:29;2.53;;;2.08;;
30743;SDS011;17486;46.738;7.622;2023-08-30T05:52:55;3.53;;;2.08;;
30743;SDS011;17486;46.738;7.622;2023-08-30T05:55:20;2.72;;;2.33;;
30743;SDS011;17486;46.738;7.622;2023-08-30T05:57:45;4.10;;;2.20;;
30743;SDS011;17486;46.738;7.622;2023-08-30T06:00:11;4.30;;;2.28;;
30743;SDS011;17486;46.738;7.622;2023-08-30T06:02:38;2.50;;;2.30;;
30743;SDS011;17486;46.738;7.622;2023-08-30T06:05:03;5.07;;;3.08;;
30743;SDS011;17486;46.738;7.622;2023-08-30T06:07:29;3.03;;;2.10;;
30743;SDS011;17486;46.738;7.622;2023-08-30T06:09:54;3.78;;;2.00;;
30743;SDS011;17486;46.738;7.622;2023-08-30T06:12:20;2.80;;;1.92;;
30743;SDS011;17486;46.738;7.622;2023-08-30T06:14:45;2.30;;;2.10;;
30743;SDS011;17486;46.738;7.622;2023-08-30T06:17:16;2.42;;;2.22;;
30743;SDS011;17486;46.738;7.622;2023-08-30T06:19:42;4.00;;;1.80;;
30743;SDS011;17486;46.738;7.622;2023-08-30T06:22:08;7.47;;;2.40;;
30743;SDS011;17486;46.738;7.622;2023-08-30T06:24:33;2.40;;;2.08;;
30743;SDS011;17486;46.738;7.622;2023-08-30T06:26:59;3.35;;;2.35;;
30743;SDS011;17486;46.738;7.622;2023-08-30T06:29:25;3.17;;;2.20;;
30743;SDS011;17486;46.738;7.622;2023-08-30T06:31:50;4.15;;;1.77;;
30743;SDS011;17486;46.738;7.622;2023-08-30T06:34:16;2.95;;;2.00;;
30743;SDS011;17486;46.738;7.622;2023-08-30T06:36:41;4.18;;;2.30;;
30743;SDS011;17486;46.738;7.622;2023-08-30T06:39:07;4.90;;;2.03;;
30743;SDS011;17486;46.738;7.622;2023-08-30T06:41:32;3.88;;;2.28;;
30743;SDS011;17486;46.738;7.622;2023-08-30T06:43:57;3.22;;;2.20;;
30743;SDS011;17486;46.738;7.622;2023-08-30T06:46:23;4.50;;;1.90;;
30743;SDS011;17486;46.738;7.622;2023-08-30T06:48:48;3.30;;;2.55;;
30743;SDS011;17486;46.738;7.622;2023-08-30T06:51:14;3.45;;;2.15;;
30743;SDS011;17486;46.738;7.622;2023-08-30T06:53:39;4.40;;;2.35;;
30743;SDS011;17486;46.738;7.622;2023-08-30T06:56:04;2.58;;;1.90;;
30743;SDS011;17486;46.738;7.622;2023-08-30T06:58:30;2.38;;;1.50;;
30743;SDS011;17486;46.738;7.622;2023-08-30T07:00:56;1.98;;;1.55;;
30743;SDS011;17486;46.738;7.622;2023-08-30T07:03:22;1.75;;;1.40;;
30743;SDS011;17486;46.738;7.622;2023-08-30T07:05:47;1.40;;;1.30;;
30743;SDS011;17486;46.738;7.622;2023-08-30T07:08:16;1.63;;;1.40;;
30743;SDS011;17486;46.738;7.622;2023-08-30T07:10:41;1.63;;;1.50;;
30743;SDS011;17486;46.738;7.622;2023-08-30T07:13:07;1.55;;;1.38;;
30743;SDS011;17486;46.738;7.622;2023-08-30T07:15:36;2.20;;;1.55;;
30743;SDS011;17486;46.738;7.622;2023-08-30T07:18:03;1.63;;;1.50;;
30743;SDS011;17486;46.738;7.622;2023-08-30T07:20:29;1.40;;;1.30;;
30743;SDS011;17486;46.738;7.622;2023-08-30T07:22:54;1.35;;;0.93;;
30743;SDS011;17486;46.738;7.622;2023-08-30T07:25:20;2.45;;;1.33;;
30743;SDS011;17486;46.738;7.622;2023-08-30T07:27:45;1.90;;;1.38;;
30743;SDS011;17486;46.738;7.622;2023-08-30T07:30:10;1.52;;;1.23;;
30743;SDS011;17486;46.738;7.622;2023-08-30T07:32:36;1.17;;;1.10;;
30743;SDS011;17486;46.738;7.622;2023-08-30T07:35:03;1.40;;;1.30;;
30743;SDS011;17486;46.738;7.622;2023-08-30T07:37:29;1.58;;;1.20;;
30743;SDS011;17486;46.738;7.622;2023-08-30T07:39:54;2.47;;;1.00;;
30743;SDS011;17486;46.738;7.622;2023-08-30T07:42:20;1.27;;;1.15;;
30743;SDS011;17486;46.738;7.622;2023-08-30T07:44:45;2.13;;;1.10;;
30743;SDS011;17486;46.738;7.622;2023-08-30T07:47:11;1.50;;;1.20;;
30743;SDS011;17486;46.738;7.622;2023-08-30T07:49:36;4.40;;;1.05;;
30743;SDS011;17486;46.738;7.622;2023-08-30T07:52:02;1.63;;;1.20;;
30743;SDS011;17486;46.738;7.622;2023-08-30T07:54:27;1.13;;;1.00;;
30743;SDS011;17486;46.738;7.622;2023-08-30T07:56:53;0.93;;;0.93;;
30743;SDS011;17486;46.738;7.622;2023-08-30T07:59:19;1.00;;;0.90;;
30743;SDS011;17486;46.738;7.622;2023-08-30T08:01:45;2.30;;;0.73;;
30743;SDS011;17486;46.738;7.622;2023-08-30T08:04:11;0.75;;;0.75;;
30743;SDS011;17486;46.738;7.622;2023-08-30T08:06:36;1.23;;;1.13;;
30743;SDS011;17486;46.738;7.622;2023-08-30T08:09:02;1.67;;;0.88;;
30743;SDS011;17486;46.738;7.622;2023-08-30T08:11:27;0.80;;;0.80;;
30743;SDS011;17486;46.738;7.622;2023-08-30T08:13:52;1.05;;;0.95;;
30743;SDS011;17486;46.738;7.622;2023-08-30T08:16:18;1.13;;;1.00;;
30743;SDS011;17486;46.738;7.622;2023-08-30T08:18:43;2.28;;;0.90;;
30743;SDS011;17486;46.738;7.622;2023-08-30T08:21:08;1.27;;;1.00;;
30743;SDS011;17486;46.738;7.622;2023-08-30T08:23:34;1.05;;;0.95;;
30743;SDS011;17486;46.738;7.622;2023-08-30T08:26:00;1.27;;;0.88;;
30743;SDS011;17486;46.738;7.622;2023-08-30T08:28:26;2.08;;;1.05;;
30743;SDS011;17486;46.738;7.622;2023-08-30T08:30:51;0.70;;;0.70;;
30743;SDS011;17486;46.738;7.622;2023-08-30T08:33:17;2.33;;;0.70;;
30743;SDS011;17486;46.738;7.622;2023-08-30T08:35:43;1.73;;;0.90;;
30743;SDS011;17486;46.738;7.622;2023-08-30T08:38:09;4.53;;;2.92;;
30743;SDS011;17486;46.738;7.622;2023-08-30T08:40:39;1.48;;;1.38;;
30743;SDS011;17486;46.738;7.622;2023-08-30T08:43:05;1.33;;;1.20;;
30743;SDS011;17486;46.738;7.622;2023-08-30T08:45:32;1.95;;;0.90;;
30743;SDS011;17486;46.738;7.622;2023-08-30T08:47:59;3.35;;;1.17;;
30743;SDS011;17486;46.738;7.622;2023-08-30T08:50:28;1.55;;;1.10;;
30743;SDS011;17486;46.738;7.622;2023-08-30T08:52:54;0.93;;;0.77;;
30743;SDS011;17486;46.738;7.622;2023-08-30T08:55:21;1.25;;;1.00;;
30743;SDS011;17486;46.738;7.622;2023-08-30T08:57:48;0.90;;;0.90;;
30743;SDS011;17486;46.738;7.622;2023-08-30T09:00:13;1.38;;;0.95;;
30743;SDS011;17486;46.738;7.622;2023-08-30T09:02:41;1.20;;;0.90;;
30743;SDS011;17486;46.738;7.622;2023-08-30T09:05:08;0.70;;;0.70;;
30743;SDS011;17486;46.738;7.622;2023-08-30T09:07:35;1.80;;;1.30;;
30743;SDS011;17486;46.738;7.622;2023-08-30T09:10:01;1.25;;;0.90;;
30743;SDS011;17486;46.738;7.622;2023-08-30T09:12:27;2.38;;;1.00;;
30743;SDS011;17486;46.738;7.622;2023-08-30T09:14:57;0.90;;;0.90;;
30743;SDS011;17486;46.738;7.622;2023-08-30T09:17:22;1.20;;;0.90;;
30743;SDS011;17486;46.738;7.622;2023-08-30T09:19:48;2.10;;;0.90;;
30743;SDS011;17486;46.738;7.622;2023-08-30T09:22:13;1.15;;;0.88;;
30743;SDS011;17486;46.738;7.622;2023-08-30T09:24:39;0.95;;;0.82;;
30743;SDS011;17486;46.738;7.622;2023-08-30T09:27:06;1.65;;;0.93;;
30743;SDS011;17486;46.738;7.622;2023-08-30T09:29:31;1.30;;;0.90;;
30743;SDS011;17486;46.738;7.622;2023-08-30T09:31:57;4.18;;;1.02;;
30743;SDS011;17486;46.738;7.622;2023-08-30T09:34:23;1.23;;;0.90;;
30743;SDS011;17486;46.738;7.622;2023-08-30T09:36:51;2.40;;;1.00;;
30743;SDS011;17486;46.738;7.622;2023-08-30T09:39:18;0.98;;;0.90;;
30743;SDS011;17486;46.738;7.622;2023-08-30T09:41:44;0.95;;;0.90;;
30743;SDS011;17486;46.738;7.622;2023-08-30T09:44:14;1.10;;;0.93;;
30743;SDS011;17486;46.738;7.622;2023-08-30T09:46:44;1.55;;;0.80;;
30743;SDS011;17486;46.738;7.622;2023-08-30T09:49:23;1.70;;;0.88;;
30743;SDS011;17486;46.738;7.622;2023-08-30T09:51:50;1.13;;;0.80;;
30743;SDS011;17486;46.738;7.622;2023-08-30T09:54:17;1.48;;;1.15;;
30743;SDS011;17486;46.738;7.622;2023-08-30T09:56:47;2.03;;;1.52;;
30743;SDS011;17486;46.738;7.622;2023-08-30T09:59:13;2.10;;;1.65;;
30743;SDS011;17486;46.738;7.622;2023-08-30T10:01:40;1.10;;;1.00;;
30743;SDS011;17486;46.738;7.622;2023-08-30T10:04:09;1.42;;;1.10;;
30743;SDS011;17486;46.738;7.622;2023-08-30T10:06:38;1.60;;;1.25;;
30743;SDS011;17486;46.738;7.622;2023-08-30T10:09:04;2.47;;;1.00;;
30743;SDS011;17486;46.738;7.622;2023-08-30T10:11:33;1.30;;;1.20;;
30743;SDS011;17486;46.738;7.622;2023-08-30T10:13:59;2.17;;;1.25;;
30743;SDS011;17486;46.738;7.622;2023-08-30T10:16:26;1.15;;;1.00;;
30743;SDS011;17486;46.738;7.622;2023-08-30T10:18:59;2.08;;;1.45;;
30743;SDS011;17486;46.738;7.622;2023-08-30T10:21:29;2.25;;;1.05;;
30743;SDS011;17486;46.738;7.622;2023-08-30T10:23:56;3.78;;;1.08;;
30743;SDS011;17486;46.738;7.622;2023-08-30T10:26:24;1.75;;;1.35;;
30743;SDS011;17486;46.738;7.622;2023-08-30T10:28:53;1.83;;;1.20;;
30743;SDS011;17486;46.738;7.622;2023-08-30T10:31:20;1.00;;;0.90;;
30743;SDS011;17486;46.738;7.622;2023-08-30T10:33:49;1.20;;;0.90;;
30743;SDS011;17486;46.738;7.622;2023-08-30T10:36:24;2.85;;;1.27;;
30743;SDS011;17486;46.738;7.622;2023-08-30T10:38:53;1.38;;;1.25;;
30743;SDS011;17486;46.738;7.622;2023-08-30T10:41:23;1.45;;;1.13;;
30743;SDS011;17486;46.738;7.622;2023-08-30T10:43:50;0.88;;;0.88;;
30743;SDS011;17486;46.738;7.622;2023-08-30T10:46:17;1.45;;;1.30;;
30743;SDS011;17486;46.738;7.622;2023-08-30T10:48:53;0.88;;;0.88;;
30743;SDS011;17486;46.738;7.622;2023-08-30T10:51:19;1.10;;;1.00;;
30743;SDS011;17486;46.738;7.622;2023-08-30T10:54:12;2.03;;;1.05;;
30743;SDS011;17486;46.738;7.622;2023-08-30T10:56:56;1.05;;;0.85;;
30743;SDS011;17486;46.738;7.622;2023-08-30T10:59:26;1.05;;;0.95;;
30743;SDS011;17486;46.738;7.622;2023-08-30T11:01:52;1.00;;;0.90;;
30743;SDS011;17486;46.738;7.622;2023-08-30T11:04:18;1.08;;;0.90;;
30743;SDS011;17486;46.738;7.622;2023-08-30T11:06:45;1.48;;;0.90;;
30743;SDS011;17486;46.738;7.622;2023-08-30T11:09:18;1.15;;;1.10;;
30743;SDS011;17486;46.738;7.622;2023-08-30T11:11:45;1.40;;;1.00;;
30743;SDS011;17486;46.738;7.622;2023-08-30T11:14:12;2.00;;;1.00;;
30743;SDS011;17486;46.738;7.622;2023-08-30T11:16:38;0.93;;;0.80;;
30743;SDS011;17486;46.738;7.622;2023-08-30T11:19:04;1.42;;;0.98;;
30743;SDS011;17486;46.738;7.622;2023-08-30T11:21:31;1.30;;;1.05;;
30743;SDS011;17486;46.738;7.622;2023-08-30T11:23:58;1.02;;;1.00;;
30743;SDS011;17486;46.738;7.622;2023-08-30T11:26:23;2.25;;;1.10;;
30743;SDS011;17486;46.738;7.622;2023-08-30T11:28:49;1.45;;;0.95;;
30743;SDS011;17486;46.738;7.622;2023-08-30T11:31:20;0.80;;;0.80;;
30743;SDS011;17486;46.738;7.622;2023-08-30T11:34:05;1.38;;;1.10;;
30743;SDS011;17486;46.738;7.622;2023-08-30T11:36:31;0.98;;;0.85;;
30743;SDS011;17486;46.738;7.622;2023-08-30T11:39:00;1.35;;;1.00;;
30743;SDS011;17486;46.738;7.622;2023-08-30T11:41:25;0.88;;;0.88;;
30743;SDS011;17486;46.738;7.622;2023-08-30T11:43:51;1.85;;;0.98;;
30743;SDS011;17486;46.738;7.622;2023-08-30T11:46:18;1.08;;;0.73;;
30743;SDS011;17486;46.738;7.622;2023-08-30T11:48:43;1.83;;;1.23;;
30743;SDS011;17486;46.738;7.622;2023-08-30T11:51:10;0.90;;;0.90;;
30743;SDS011;17486;46.738;7.622;2023-08-30T11:53:36;1.38;;;1.00;;
30743;SDS011;17486;46.738;7.622;2023-08-30T11:56:03;0.95;;;0.77;;
30743;SDS011;17486;46.738;7.622;2023-08-30T11:58:33;1.25;;;1.15;;
30743;SDS011;17486;46.738;7.622;2023-08-30T12:01:00;1.38;;;1.00;;
30743;SDS011;17486;46.738;7.622;2023-08-30T12:03:27;1.92;;;1.08;;
30743;SDS011;17486;46.738;7.622;2023-08-30T12:05:53;1.52;;;1.13;;
30743;SDS011;17486;46.738;7.622;2023-08-30T12:08:26;1.10;;;1.00;;
30743;SDS011;17486;46.738;7.622;2023-08-30T12:10:53;1.15;;;1.02;;
30743;SDS011;17486;46.738;7.622;2023-08-30T12:15:52;1.00;;;1.00;;
30743;SDS011;17486;46.738;7.622;2023-08-30T12:18:22;1.35;;;1.20;;
30743;SDS011;17486;46.738;7.622;2023-08-30T12:20:52;1.27;;;1.05;;
30743;SDS011;17486;46.738;7.622;2023-08-30T12:23:19;1.40;;;1.00;;
30743;SDS011;17486;46.738;7.622;2023-08-30T12:25:56;1.10;;;0.80;;
30743;SDS011;17486;46.738;7.622;2023-08-30T12:28:41;1.45;;;1.20;;
30743;SDS011;17486;46.738;7.622;2023-08-30T12:31:09;1.73;;;1.30;;
30743;SDS011;17486;46.738;7.622;2023-08-30T12:33:35;1.35;;;1.20;;
30743;SDS011;17486;46.738;7.622;2023-08-30T12:36:01;1.33;;;1.08;;
30743;SDS011;17486;46.738;7.622;2023-08-30T12:38:28;1.42;;;1.20;;
30743;SDS011;17486;46.738;7.622;2023-08-30T12:40:54;1.20;;;1.10;;
30743;SDS011;17486;46.738;7.622;2023-08-30T12:43:20;1.42;;;1.08;;
30743;SDS011;17486;46.738;7.622;2023-08-30T12:45:46;1.10;;;1.00;;
30743;SDS011;17486;46.738;7.622;2023-08-30T12:48:13;2.45;;;1.30;;
30743;SDS011;17486;46.738;7.622;2023-08-30T12:50:41;3.17;;;1.00;;
30743;SDS011;17486;46.738;7.622;2023-08-30T12:53:07;3.05;;;1.00;;
30743;SDS011;17486;46.738;7.622;2023-08-30T12:55:34;1.80;;;1.40;;
30743;SDS011;17486;46.738;7.622;2023-08-30T12:58:00;1.73;;;1.40;;
30743;SDS011;17486;46.738;7.622;2023-08-30T13:00:25;1.52;;;0.93;;
30743;SDS011;17486;46.738;7.622;2023-08-30T13:02:51;1.23;;;0.95;;
30743;SDS011;17486;46.738;7.622;2023-08-30T13:05:17;0.70;;;0.70;;
30743;SDS011;17486;46.738;7.622;2023-08-30T13:07:42;0.95;;;0.95;;
30743;SDS011;17486;46.738;7.622;2023-08-30T13:10:08;2.10;;;1.23;;
30743;SDS011;17486;46.738;7.622;2023-08-30T13:12:34;1.15;;;1.05;;
30743;SDS011;17486;46.738;7.622;2023-08-30T13:15:00;1.30;;;1.00;;
30743;SDS011;17486;46.738;7.622;2023-08-30T13:17:26;2.05;;;0.95;;
30743;SDS011;17486;46.738;7.622;2023-08-30T13:19:52;1.88;;;1.33;;
30743;SDS011;17486;46.738;7.622;2023-08-30T13:22:17;1.90;;;1.10;;
30743;SDS011;17486;46.738;7.622;2023-08-30T13:24:43;1.00;;;1.00;;
30743;SDS011;17486;46.738;7.622;2023-08-30T13:27:09;1.45;;;0.88;;
30743;SDS011;17486;46.738;7.622;2023-08-30T13:29:35;1.20;;;1.10;;
30743;SDS011;17486;46.738;7.622;2023-08-30T13:32:00;2.10;;;1.15;;
30743;SDS011;17486;46.738;7.622;2023-08-30T13:34:26;1.33;;;1.23;;
30743;SDS011;17486;46.738;7.622;2023-08-30T13:36:51;1.73;;;1.27;;
30743;SDS011;17486;46.738;7.622;2023-08-30T13:39:17;2.80;;;1.30;;
30743;SDS011;17486;46.738;7.622;2023-08-30T13:41:44;1.15;;;1.05;;
30743;SDS011;17486;46.738;7.622;2023-08-30T13:44:10;1.23;;;1.13;;
30743;SDS011;17486;46.738;7.622;2023-08-30T13:46:35;4.15;;;1.50;;
30743;SDS011;17486;46.738;7.622;2023-08-30T13:49:00;1.40;;;1.30;;
30743;SDS011;17486;46.738;7.622;2023-08-30T13:51:26;1.50;;;1.27;;
30743;SDS011;17486;46.738;7.622;2023-08-30T13:53:52;2.13;;;1.38;;
30743;SDS011;17486;46.738;7.622;2023-08-30T13:56:18;1.40;;;1.30;;
30743;SDS011;17486;46.738;7.622;2023-08-30T13:58:44;1.10;;;1.00;;
30743;SDS011;17486;46.738;7.622;2023-08-30T14:01:10;1.13;;;0.70;;
30743;SDS011;17486;46.738;7.622;2023-08-30T14:03:35;1.92;;;1.30;;
30743;SDS011;17486;46.738;7.622;2023-08-30T14:06:01;1.55;;;1.33;;
30743;SDS011;17486;46.738;7.622;2023-08-30T14:08:26;1.27;;;1.02;;
30743;SDS011;17486;46.738;7.622;2023-08-30T14:10:52;0.80;;;0.80;;
30743;SDS011;17486;46.738;7.622;2023-08-30T14:13:17;2.67;;;1.20;;
30743;SDS011;17486;46.738;7.622;2023-08-30T14:15:42;1.10;;;1.00;;
30743;SDS011;17486;46.738;7.622;2023-08-30T14:18:08;0.90;;;0.90;;
30743;SDS011;17486;46.738;7.622;2023-08-30T14:20:33;0.77;;;0.77;;
30743;SDS011;17486;46.738;7.622;2023-08-30T14:22:59;1.05;;;0.90;;
30743;SDS011;17486;46.738;7.622;2023-08-30T14:25:24;2.13;;;1.30;;
30743;SDS011;17486;46.738;7.622;2023-08-30T14:27:50;1.58;;;1.20;;
30743;SDS011;17486;46.738;7.622;2023-08-30T14:30:15;1.02;;;0.93;;
30743;SDS011;17486;46.738;7.622;2023-08-30T14:32:44;1.30;;;1.20;;
30743;SDS011;17486;46.738;7.622;2023-08-30T14:35:09;1.40;;;1.30;;
30743;SDS011;17486;46.738;7.622;2023-08-30T14:37:36;1.42;;;1.08;;
30743;SDS011;17486;46.738;7.622;2023-08-30T14:40:03;1.20;;;1.10;;
30743;SDS011;17486;46.738;7.622;2023-08-30T14:42:29;1.08;;;0.98;;
30743;SDS011;17486;46.738;7.622;2023-08-30T14:44:54;1.52;;;1.20;;
30743;SDS011;17486;46.738;7.622;2023-08-30T14:47:20;3.55;;;1.30;;
30743;SDS011;17486;46.738;7.622;2023-08-30T14:49:48;1.30;;;1.20;;